sensor_id;sensor_type;location;lat;lon;timestamp;P1;durP1;ratioP1;P2;durP2;ratioP2
7813;SDS011;3952;48.364;16.022;2023-09-12T00:01:06;11.70;;;10.67;;
7813;SDS011;3952;48.364;16.022;2023-09-12T00:03:34;11.43;;;10.73;;
7813;SDS011;3952;48.364;16.022;2023-09-12T00:06:01;12.03;;;11.27;;
7813;SDS011;3952;48.364;16.022;2023-09-12T00:08:29;11.90;;;10.77;;
7813;SDS011;3952;48.364;16.022;2023-09-12T00:11:02;10.87;;;10.00;;
7813;SDS011;3952;48.364;16.022;2023-09-12T00:13:30;10.60;;;9.83;;
7813;SDS011;3952;48.364;16.022;2023-09-12T00:15:59;10.73;;;10.03;;
7813;SDS011;3952;48.364;16.022;2023-09-12T00:18:27;10.87;;;10.27;;
7813;SDS011;3952;48.364;16.022;2023-09-12T00:20:54;11.07;;;10.37;;
7813;SDS011;3952;48.364;16.022;2023-09-12T00:23:22;11.67;;;10.87;;
7813;SDS011;3952;48.364;16.022;2023-09-12T00:25:49;11.70;;;10.90;;
7813;SDS011;3952;48.364;16.022;2023-09-12T00:28:18;11.03;;;10.23;;
7813;SDS011;3952;48.364;16.022;2023-09-12T00:30:46;10.80;;;10.20;;
7813;SDS011;3952;48.364;16.022;2023-09-12T00:33:13;11.07;;;10.40;;
7813;SDS011;3952;48.364;16.022;2023-09-12T00:35:40;11.00;;;10.30;;
7813;SDS011;3952;48.364;16.022;2023-09-12T00:38:08;11.07;;;10.27;;
7813;SDS011;3952;48.364;16.022;2023-09-12T00:40:36;12.13;;;11.33;;
7813;SDS011;3952;48.364;16.022;2023-09-12T00:43:03;11.67;;;11.07;;
7813;SDS011;3952;48.364;16.022;2023-09-12T00:45:32;11.73;;;10.93;;
7813;SDS011;3952;48.364;16.022;2023-09-12T00:47:59;11.80;;;10.73;;
7813;SDS011;3952;48.364;16.022;2023-09-12T00:50:29;12.47;;;11.53;;
7813;SDS011;3952;48.364;16.022;2023-09-12T00:52:59;10.97;;;10.20;;
7813;SDS011;3952;48.364;16.022;2023-09-12T00:55:28;12.03;;;10.90;;
7813;SDS011;3952;48.364;16.022;2023-09-12T00:57:58;10.43;;;9.83;;
7813;SDS011;3952;48.364;16.022;2023-09-12T01:00:25;11.37;;;10.27;;
7813;SDS011;3952;48.364;16.022;2023-09-12T01:02:54;11.47;;;10.57;;
7813;SDS011;3952;48.364;16.022;2023-09-12T01:05:22;11.50;;;10.87;;
7813;SDS011;3952;48.364;16.022;2023-09-12T01:07:49;10.73;;;10.07;;
7813;SDS011;3952;48.364;16.022;2023-09-12T01:10:17;9.90;;;9.30;;
7813;SDS011;3952;48.364;16.022;2023-09-12T01:12:44;10.90;;;10.00;;
7813;SDS011;3952;48.364;16.022;2023-09-12T01:15:11;10.43;;;9.73;;
7813;SDS011;3952;48.364;16.022;2023-09-12T01:17:40;10.77;;;10.07;;
7813;SDS011;3952;48.364;16.022;2023-09-12T01:20:10;11.00;;;10.17;;
7813;SDS011;3952;48.364;16.022;2023-09-12T01:22:52;10.93;;;10.13;;
7813;SDS011;3952;48.364;16.022;2023-09-12T01:28:31;11.53;;;10.70;;
7813;SDS011;3952;48.364;16.022;2023-09-12T01:31:01;11.20;;;10.50;;
7813;SDS011;3952;48.364;16.022;2023-09-12T01:33:30;11.50;;;10.77;;
7813;SDS011;3952;48.364;16.022;2023-09-12T01:35:57;11.17;;;10.47;;
7813;SDS011;3952;48.364;16.022;2023-09-12T01:38:25;12.27;;;11.30;;
7813;SDS011;3952;48.364;16.022;2023-09-12T01:40:52;12.70;;;11.87;;
7813;SDS011;3952;48.364;16.022;2023-09-12T01:43:23;13.03;;;12.07;;
7813;SDS011;3952;48.364;16.022;2023-09-12T01:45:55;12.47;;;11.37;;
7813;SDS011;3952;48.364;16.022;2023-09-12T01:48:25;12.83;;;11.83;;
7813;SDS011;3952;48.364;16.022;2023-09-12T01:50:58;11.77;;;11.07;;
7813;SDS011;3952;48.364;16.022;2023-09-12T01:53:26;11.63;;;11.03;;
7813;SDS011;3952;48.364;16.022;2023-09-12T01:55:54;12.57;;;11.50;;
7813;SDS011;3952;48.364;16.022;2023-09-12T01:58:24;11.77;;;11.10;;
7813;SDS011;3952;48.364;16.022;2023-09-12T02:00:53;11.83;;;11.03;;
7813;SDS011;3952;48.364;16.022;2023-09-12T02:03:21;12.27;;;11.53;;
7813;SDS011;3952;48.364;16.022;2023-09-12T02:05:48;12.23;;;11.33;;
7813;SDS011;3952;48.364;16.022;2023-09-12T02:08:15;11.87;;;11.07;;
7813;SDS011;3952;48.364;16.022;2023-09-12T02:10:42;11.97;;;11.17;;
7813;SDS011;3952;48.364;16.022;2023-09-12T02:13:10;11.17;;;10.57;;
7813;SDS011;3952;48.364;16.022;2023-09-12T02:15:37;12.43;;;11.60;;
7813;SDS011;3952;48.364;16.022;2023-09-12T02:18:05;12.30;;;11.37;;
7813;SDS011;3952;48.364;16.022;2023-09-12T02:20:33;12.20;;;11.07;;
7813;SDS011;3952;48.364;16.022;2023-09-12T02:23:04;10.57;;;9.97;;
7813;SDS011;3952;48.364;16.022;2023-09-12T02:25:31;11.87;;;11.17;;
7813;SDS011;3952;48.364;16.022;2023-09-12T02:27:59;11.13;;;10.17;;
7813;SDS011;3952;48.364;16.022;2023-09-12T02:30:26;11.50;;;10.70;;
7813;SDS011;3952;48.364;16.022;2023-09-12T02:32:53;11.37;;;10.57;;
7813;SDS011;3952;48.364;16.022;2023-09-12T02:35:21;11.43;;;10.73;;
7813;SDS011;3952;48.364;16.022;2023-09-12T02:37:49;12.37;;;11.57;;
7813;SDS011;3952;48.364;16.022;2023-09-12T02:40:16;11.00;;;10.20;;
7813;SDS011;3952;48.364;16.022;2023-09-12T02:42:44;11.70;;;10.90;;
7813;SDS011;3952;48.364;16.022;2023-09-12T02:45:12;11.33;;;10.63;;
7813;SDS011;3952;48.364;16.022;2023-09-12T02:47:39;11.23;;;10.47;;
7813;SDS011;3952;48.364;16.022;2023-09-12T02:50:08;11.87;;;10.97;;
7813;SDS011;3952;48.364;16.022;2023-09-12T02:52:37;11.53;;;10.43;;
7813;SDS011;3952;48.364;16.022;2023-09-12T02:55:05;12.03;;;11.07;;
7813;SDS011;3952;48.364;16.022;2023-09-12T02:57:33;10.57;;;9.87;;
7813;SDS011;3952;48.364;16.022;2023-09-12T03:00:00;11.83;;;10.87;;
7813;SDS011;3952;48.364;16.022;2023-09-12T03:02:27;11.77;;;10.77;;
7813;SDS011;3952;48.364;16.022;2023-09-12T03:04:54;12.63;;;11.27;;
7813;SDS011;3952;48.364;16.022;2023-09-12T03:07:22;12.77;;;11.67;;
7813;SDS011;3952;48.364;16.022;2023-09-12T03:09:50;11.83;;;11.03;;
7813;SDS011;3952;48.364;16.022;2023-09-12T03:12:17;12.43;;;11.63;;
7813;SDS011;3952;48.364;16.022;2023-09-12T03:14:44;12.53;;;11.63;;
7813;SDS011;3952;48.364;16.022;2023-09-12T03:17:12;12.27;;;11.27;;
7813;SDS011;3952;48.364;16.022;2023-09-12T03:19:39;12.13;;;11.30;;
7813;SDS011;3952;48.364;16.022;2023-09-12T03:22:06;11.97;;;11.17;;
7813;SDS011;3952;48.364;16.022;2023-09-12T03:24:33;13.10;;;11.83;;
7813;SDS011;3952;48.364;16.022;2023-09-12T03:27:02;11.63;;;10.87;;
7813;SDS011;3952;48.364;16.022;2023-09-12T03:29:29;12.53;;;11.73;;
7813;SDS011;3952;48.364;16.022;2023-09-12T03:31:56;11.73;;;11.03;;
7813;SDS011;3952;48.364;16.022;2023-09-12T03:34:24;11.87;;;10.90;;
7813;SDS011;3952;48.364;16.022;2023-09-12T03:36:51;12.27;;;11.10;;
7813;SDS011;3952;48.364;16.022;2023-09-12T03:39:18;10.63;;;9.83;;
7813;SDS011;3952;48.364;16.022;2023-09-12T03:41:45;12.27;;;11.20;;
7813;SDS011;3952;48.364;16.022;2023-09-12T03:44:14;12.40;;;11.00;;
7813;SDS011;3952;48.364;16.022;2023-09-12T03:46:41;11.33;;;10.53;;
7813;SDS011;3952;48.364;16.022;2023-09-12T03:49:08;12.87;;;11.77;;
7813;SDS011;3952;48.364;16.022;2023-09-12T03:51:35;14.77;;;12.17;;
7813;SDS011;3952;48.364;16.022;2023-09-12T03:54:03;12.63;;;11.50;;
7813;SDS011;3952;48.364;16.022;2023-09-12T03:56:30;11.97;;;11.10;;
7813;SDS011;3952;48.364;16.022;2023-09-12T03:58:57;13.80;;;12.53;;
7813;SDS011;3952;48.364;16.022;2023-09-12T04:01:26;12.07;;;11.27;;
7813;SDS011;3952;48.364;16.022;2023-09-12T04:03:54;13.90;;;12.90;;
7813;SDS011;3952;48.364;16.022;2023-09-12T04:06:21;12.17;;;11.40;;
7813;SDS011;3952;48.364;16.022;2023-09-12T04:08:49;12.30;;;11.40;;
7813;SDS011;3952;48.364;16.022;2023-09-12T04:11:16;13.57;;;12.53;;
7813;SDS011;3952;48.364;16.022;2023-09-12T04:13:43;13.83;;;12.67;;
7813;SDS011;3952;48.364;16.022;2023-09-12T04:16:10;12.33;;;11.63;;
7813;SDS011;3952;48.364;16.022;2023-09-12T04:18:39;12.63;;;11.73;;
7813;SDS011;3952;48.364;16.022;2023-09-12T04:21:06;13.50;;;11.80;;
7813;SDS011;3952;48.364;16.022;2023-09-12T04:23:33;12.30;;;11.20;;
7813;SDS011;3952;48.364;16.022;2023-09-12T04:26:00;11.10;;;10.43;;
7813;SDS011;3952;48.364;16.022;2023-09-12T04:28:28;11.60;;;10.80;;
7813;SDS011;3952;48.364;16.022;2023-09-12T04:31:00;11.23;;;10.33;;
7813;SDS011;3952;48.364;16.022;2023-09-12T04:33:28;11.03;;;10.33;;
7813;SDS011;3952;48.364;16.022;2023-09-12T04:36:00;12.07;;;11.03;;
7813;SDS011;3952;48.364;16.022;2023-09-12T04:38:27;11.40;;;10.47;;
7813;SDS011;3952;48.364;16.022;2023-09-12T04:40:55;11.10;;;10.17;;
7813;SDS011;3952;48.364;16.022;2023-09-12T04:43:22;10.53;;;9.70;;
7813;SDS011;3952;48.364;16.022;2023-09-12T04:45:50;11.07;;;10.30;;
7813;SDS011;3952;48.364;16.022;2023-09-12T04:48:17;12.13;;;11.10;;
7813;SDS011;3952;48.364;16.022;2023-09-12T04:50:44;11.43;;;10.50;;
7813;SDS011;3952;48.364;16.022;2023-09-12T04:53:12;10.90;;;9.90;;
7813;SDS011;3952;48.364;16.022;2023-09-12T04:55:40;10.97;;;10.27;;
7813;SDS011;3952;48.364;16.022;2023-09-12T04:58:07;10.97;;;10.27;;
7813;SDS011;3952;48.364;16.022;2023-09-12T05:00:34;11.03;;;10.33;;
7813;SDS011;3952;48.364;16.022;2023-09-12T05:03:01;11.17;;;10.47;;
7813;SDS011;3952;48.364;16.022;2023-09-12T05:05:30;11.57;;;10.77;;
7813;SDS011;3952;48.364;16.022;2023-09-12T05:07:57;11.60;;;10.80;;
7813;SDS011;3952;48.364;16.022;2023-09-12T05:10:25;11.80;;;11.00;;
7813;SDS011;3952;48.364;16.022;2023-09-12T05:12:52;11.37;;;10.53;;
7813;SDS011;3952;48.364;16.022;2023-09-12T05:15:20;11.97;;;10.97;;
7813;SDS011;3952;48.364;16.022;2023-09-12T05:17:47;11.80;;;11.10;;
7813;SDS011;3952;48.364;16.022;2023-09-12T05:20:14;13.40;;;12.53;;
7813;SDS011;3952;48.364;16.022;2023-09-12T05:22:41;13.40;;;12.17;;
7813;SDS011;3952;48.364;16.022;2023-09-12T05:25:11;12.47;;;11.53;;
7813;SDS011;3952;48.364;16.022;2023-09-12T05:27:40;12.80;;;11.90;;
7813;SDS011;3952;48.364;16.022;2023-09-12T05:30:07;13.10;;;12.20;;
7813;SDS011;3952;48.364;16.022;2023-09-12T05:32:35;14.40;;;13.30;;
7813;SDS011;3952;48.364;16.022;2023-09-12T05:35:03;15.80;;;14.30;;
7813;SDS011;3952;48.364;16.022;2023-09-12T05:37:31;16.30;;;14.90;;
7813;SDS011;3952;48.364;16.022;2023-09-12T05:39:58;15.83;;;14.63;;
7813;SDS011;3952;48.364;16.022;2023-09-12T05:42:25;14.57;;;13.50;;
7813;SDS011;3952;48.364;16.022;2023-09-12T05:44:53;14.90;;;13.90;;
7813;SDS011;3952;48.364;16.022;2023-09-12T05:47:21;14.13;;;13.23;;
7813;SDS011;3952;48.364;16.022;2023-09-12T05:49:49;14.17;;;13.30;;
7813;SDS011;3952;48.364;16.022;2023-09-12T05:52:16;14.47;;;13.50;;
7813;SDS011;3952;48.364;16.022;2023-09-12T05:54:44;13.23;;;12.23;;
7813;SDS011;3952;48.364;16.022;2023-09-12T05:57:11;14.33;;;13.33;;
7813;SDS011;3952;48.364;16.022;2023-09-12T05:59:38;15.47;;;14.03;;
7813;SDS011;3952;48.364;16.022;2023-09-12T06:02:07;15.70;;;14.57;;
7813;SDS011;3952;48.364;16.022;2023-09-12T06:04:34;15.23;;;14.23;;
7813;SDS011;3952;48.364;16.022;2023-09-12T06:07:02;15.60;;;14.13;;
7813;SDS011;3952;48.364;16.022;2023-09-12T06:09:29;15.77;;;14.57;;
7813;SDS011;3952;48.364;16.022;2023-09-12T06:11:57;16.43;;;15.33;;
7813;SDS011;3952;48.364;16.022;2023-09-12T06:14:24;16.17;;;15.07;;
7813;SDS011;3952;48.364;16.022;2023-09-12T06:16:51;15.07;;;14.13;;
7813;SDS011;3952;48.364;16.022;2023-09-12T06:19:20;17.80;;;16.23;;
7813;SDS011;3952;48.364;16.022;2023-09-12T06:21:47;17.93;;;16.27;;
7813;SDS011;3952;48.364;16.022;2023-09-12T06:24:15;17.67;;;16.37;;
7813;SDS011;3952;48.364;16.022;2023-09-12T06:26:43;18.03;;;16.83;;
7813;SDS011;3952;48.364;16.022;2023-09-12T06:29:10;17.37;;;16.13;;
7813;SDS011;3952;48.364;16.022;2023-09-12T06:31:38;17.47;;;15.93;;
7813;SDS011;3952;48.364;16.022;2023-09-12T06:34:06;17.43;;;15.87;;
7813;SDS011;3952;48.364;16.022;2023-09-12T06:36:35;17.93;;;16.30;;
7813;SDS011;3952;48.364;16.022;2023-09-12T06:39:03;19.03;;;17.53;;
7813;SDS011;3952;48.364;16.022;2023-09-12T06:41:30;21.83;;;17.63;;
7813;SDS011;3952;48.364;16.022;2023-09-12T06:43:58;19.37;;;17.60;;
7813;SDS011;3952;48.364;16.022;2023-09-12T06:46:27;18.37;;;16.77;;
7813;SDS011;3952;48.364;16.022;2023-09-12T06:48:54;18.07;;;16.77;;
7813;SDS011;3952;48.364;16.022;2023-09-12T06:51:23;17.40;;;15.87;;
7813;SDS011;3952;48.364;16.022;2023-09-12T06:53:52;18.10;;;16.70;;
7813;SDS011;3952;48.364;16.022;2023-09-12T06:56:20;18.17;;;16.37;;
7813;SDS011;3952;48.364;16.022;2023-09-12T06:58:47;17.20;;;15.97;;
7813;SDS011;3952;48.364;16.022;2023-09-12T07:01:14;16.83;;;15.63;;
7813;SDS011;3952;48.364;16.022;2023-09-12T07:03:41;16.27;;;15.07;;
7813;SDS011;3952;48.364;16.022;2023-09-12T07:06:08;16.90;;;15.60;;
7813;SDS011;3952;48.364;16.022;2023-09-12T07:08:36;17.07;;;15.37;;
7813;SDS011;3952;48.364;16.022;2023-09-12T07:11:05;15.63;;;14.50;;
7813;SDS011;3952;48.364;16.022;2023-09-12T07:13:32;14.90;;;13.90;;
7813;SDS011;3952;48.364;16.022;2023-09-12T07:16:00;15.30;;;14.20;;
7813;SDS011;3952;48.364;16.022;2023-09-12T07:18:29;15.60;;;14.27;;
7813;SDS011;3952;48.364;16.022;2023-09-12T07:20:58;14.40;;;13.20;;
7813;SDS011;3952;48.364;16.022;2023-09-12T07:23:26;14.40;;;13.50;;
7813;SDS011;3952;48.364;16.022;2023-09-12T07:25:54;13.67;;;12.70;;
7813;SDS011;3952;48.364;16.022;2023-09-12T07:28:24;14.70;;;13.77;;
7813;SDS011;3952;48.364;16.022;2023-09-12T07:30:51;14.10;;;12.97;;
7813;SDS011;3952;48.364;16.022;2023-09-12T07:33:19;14.33;;;13.33;;
7813;SDS011;3952;48.364;16.022;2023-09-12T07:35:46;14.00;;;13.10;;
7813;SDS011;3952;48.364;16.022;2023-09-12T07:38:14;14.53;;;13.43;;
7813;SDS011;3952;48.364;16.022;2023-09-12T07:40:41;15.30;;;14.00;;
7813;SDS011;3952;48.364;16.022;2023-09-12T07:43:08;15.23;;;14.17;;
7813;SDS011;3952;48.364;16.022;2023-09-12T07:45:37;13.75;;;12.68;;
7813;SDS011;3952;48.364;16.022;2023-09-12T07:48:05;14.90;;;13.65;;
7813;SDS011;3952;48.364;16.022;2023-09-12T07:50:33;14.63;;;13.27;;
7813;SDS011;3952;48.364;16.022;2023-09-12T07:53:03;14.38;;;13.38;;
7813;SDS011;3952;48.364;16.022;2023-09-12T07:55:31;14.10;;;13.10;;
7813;SDS011;3952;48.364;16.022;2023-09-12T07:58:03;15.65;;;14.60;;
7813;SDS011;3952;48.364;16.022;2023-09-12T08:00:31;14.30;;;13.38;;
7813;SDS011;3952;48.364;16.022;2023-09-12T08:03:04;14.90;;;13.70;;
7813;SDS011;3952;48.364;16.022;2023-09-12T08:05:31;15.15;;;14.07;;
7813;SDS011;3952;48.364;16.022;2023-09-12T08:07:58;13.90;;;12.98;;
7813;SDS011;3952;48.364;16.022;2023-09-12T08:10:26;14.50;;;13.60;;
7813;SDS011;3952;48.364;16.022;2023-09-12T08:12:53;13.70;;;12.77;;
7813;SDS011;3952;48.364;16.022;2023-09-12T08:15:20;14.95;;;13.85;;
7813;SDS011;3952;48.364;16.022;2023-09-12T08:17:47;13.40;;;12.38;;
7813;SDS011;3952;48.364;16.022;2023-09-12T08:20:18;14.27;;;13.27;;
7813;SDS011;3952;48.364;16.022;2023-09-12T08:22:46;14.80;;;13.57;;
7813;SDS011;3952;48.364;16.022;2023-09-12T08:25:14;13.25;;;12.45;;
7813;SDS011;3952;48.364;16.022;2023-09-12T08:27:41;12.65;;;11.45;;
7813;SDS011;3952;48.364;16.022;2023-09-12T08:30:10;12.93;;;11.93;;
7813;SDS011;3952;48.364;16.022;2023-09-12T08:32:38;13.18;;;12.02;;
7813;SDS011;3952;48.364;16.022;2023-09-12T08:35:09;12.32;;;11.43;;
7813;SDS011;3952;48.364;16.022;2023-09-12T08:37:39;12.63;;;11.82;;
7813;SDS011;3952;48.364;16.022;2023-09-12T08:40:08;11.98;;;11.27;;
7813;SDS011;3952;48.364;16.022;2023-09-12T08:42:38;13.65;;;12.57;;
7813;SDS011;3952;48.364;16.022;2023-09-12T08:45:08;12.80;;;11.65;;
7813;SDS011;3952;48.364;16.022;2023-09-12T08:47:40;12.77;;;11.73;;
7813;SDS011;3952;48.364;16.022;2023-09-12T08:50:10;11.55;;;10.63;;
7813;SDS011;3952;48.364;16.022;2023-09-12T08:52:41;11.07;;;10.18;;
7813;SDS011;3952;48.364;16.022;2023-09-12T08:55:09;12.25;;;11.10;;
7813;SDS011;3952;48.364;16.022;2023-09-12T08:57:38;12.18;;;11.15;;
7813;SDS011;3952;48.364;16.022;2023-09-12T09:00:07;11.20;;;10.48;;
7813;SDS011;3952;48.364;16.022;2023-09-12T09:02:38;11.02;;;10.38;;
7813;SDS011;3952;48.364;16.022;2023-09-12T09:05:06;10.98;;;10.07;;
7813;SDS011;3952;48.364;16.022;2023-09-12T09:07:35;11.02;;;9.98;;
7813;SDS011;3952;48.364;16.022;2023-09-12T09:10:05;10.95;;;10.15;;
7813;SDS011;3952;48.364;16.022;2023-09-12T09:12:34;11.70;;;10.80;;
7813;SDS011;3952;48.364;16.022;2023-09-12T09:17:48;11.45;;;10.38;;
7813;SDS011;3952;48.364;16.022;2023-09-12T09:20:23;11.57;;;10.60;;
7813;SDS011;3952;48.364;16.022;2023-09-12T09:22:56;11.55;;;10.77;;
7813;SDS011;3952;48.364;16.022;2023-09-12T09:25:32;11.23;;;10.23;;
7813;SDS011;3952;48.364;16.022;2023-09-12T09:28:02;11.00;;;10.25;;
7813;SDS011;3952;48.364;16.022;2023-09-12T09:30:42;11.15;;;10.30;;
7813;SDS011;3952;48.364;16.022;2023-09-12T09:33:11;11.00;;;10.10;;
7813;SDS011;3952;48.364;16.022;2023-09-12T09:35:41;10.18;;;9.57;;
7813;SDS011;3952;48.364;16.022;2023-09-12T09:38:08;10.93;;;10.13;;
7813;SDS011;3952;48.364;16.022;2023-09-12T09:40:42;10.60;;;9.35;;
7813;SDS011;3952;48.364;16.022;2023-09-12T09:43:11;9.43;;;8.68;;
7813;SDS011;3952;48.364;16.022;2023-09-12T09:45:42;9.05;;;8.52;;
7813;SDS011;3952;48.364;16.022;2023-09-12T09:48:13;12.68;;;11.77;;
7813;SDS011;3952;48.364;16.022;2023-09-12T09:50:44;12.25;;;10.95;;
7813;SDS011;3952;48.364;16.022;2023-09-12T09:53:11;11.38;;;10.38;;
7813;SDS011;3952;48.364;16.022;2023-09-12T09:55:39;10.55;;;9.63;;
7813;SDS011;3952;48.364;16.022;2023-09-12T09:58:08;12.48;;;11.20;;
7813;SDS011;3952;48.364;16.022;2023-09-12T10:00:42;10.60;;;9.68;;
7813;SDS011;3952;48.364;16.022;2023-09-12T10:03:10;11.15;;;10.25;;
7813;SDS011;3952;48.364;16.022;2023-09-12T10:05:39;10.93;;;9.88;;
7813;SDS011;3952;48.364;16.022;2023-09-12T10:08:08;13.93;;;10.25;;
7813;SDS011;3952;48.364;16.022;2023-09-12T10:10:42;9.80;;;9.23;;
7813;SDS011;3952;48.364;16.022;2023-09-12T10:13:11;10.75;;;9.95;;
7813;SDS011;3952;48.364;16.022;2023-09-12T10:15:40;10.18;;;9.27;;
7813;SDS011;3952;48.364;16.022;2023-09-12T10:18:10;11.18;;;10.13;;
7813;SDS011;3952;48.364;16.022;2023-09-12T10:20:45;11.27;;;10.10;;
7813;SDS011;3952;48.364;16.022;2023-09-12T10:23:18;13.15;;;8.95;;
7813;SDS011;3952;48.364;16.022;2023-09-12T10:25:49;10.13;;;9.63;;
7813;SDS011;3952;48.364;16.022;2023-09-12T10:28:19;9.82;;;9.20;;
7813;SDS011;3952;48.364;16.022;2023-09-12T10:30:48;10.48;;;9.43;;
7813;SDS011;3952;48.364;16.022;2023-09-12T10:33:17;9.40;;;8.68;;
7813;SDS011;3952;48.364;16.022;2023-09-12T10:35:45;9.10;;;8.60;;
7813;SDS011;3952;48.364;16.022;2023-09-12T10:38:15;8.93;;;8.32;;
7813;SDS011;3952;48.364;16.022;2023-09-12T10:40:44;10.93;;;9.02;;
7813;SDS011;3952;48.364;16.022;2023-09-12T10:43:12;9.75;;;8.95;;
7813;SDS011;3952;48.364;16.022;2023-09-12T10:45:42;9.52;;;8.93;;
7813;SDS011;3952;48.364;16.022;2023-09-12T10:48:10;10.07;;;9.32;;
7813;SDS011;3952;48.364;16.022;2023-09-12T10:50:38;8.63;;;8.02;;
7813;SDS011;3952;48.364;16.022;2023-09-12T10:53:10;9.73;;;8.90;;
7813;SDS011;3952;48.364;16.022;2023-09-12T10:55:38;8.25;;;7.75;;
7813;SDS011;3952;48.364;16.022;2023-09-12T10:58:07;9.20;;;8.60;;
7813;SDS011;3952;48.364;16.022;2023-09-12T11:00:35;8.65;;;7.80;;
7813;SDS011;3952;48.364;16.022;2023-09-12T11:06:06;8.60;;;7.95;;
7813;SDS011;3952;48.364;16.022;2023-09-12T11:11:48;9.77;;;7.95;;
7813;SDS011;3952;48.364;16.022;2023-09-12T11:14:20;8.82;;;8.25;;
7813;SDS011;3952;48.364;16.022;2023-09-12T11:19:50;13.50;;;8.50;;
7813;SDS011;3952;48.364;16.022;2023-09-12T11:22:35;9.30;;;8.70;;
7813;SDS011;3952;48.364;16.022;2023-09-12T11:25:06;9.05;;;8.45;;
7813;SDS011;3952;48.364;16.022;2023-09-12T11:28:01;9.07;;;8.52;;
7813;SDS011;3952;48.364;16.022;2023-09-12T11:30:30;8.25;;;7.80;;
7813;SDS011;3952;48.364;16.022;2023-09-12T11:32:59;8.27;;;7.68;;
7813;SDS011;3952;48.364;16.022;2023-09-12T11:35:35;7.78;;;7.38;;
7813;SDS011;3952;48.364;16.022;2023-09-12T11:38:09;8.25;;;7.78;;
7813;SDS011;3952;48.364;16.022;2023-09-12T11:40:43;8.10;;;7.70;;
7813;SDS011;3952;48.364;16.022;2023-09-12T11:43:19;7.95;;;7.43;;
7813;SDS011;3952;48.364;16.022;2023-09-12T11:45:48;8.60;;;7.93;;
7813;SDS011;3952;48.364;16.022;2023-09-12T11:48:16;8.20;;;7.63;;
7813;SDS011;3952;48.364;16.022;2023-09-12T11:50:50;7.53;;;7.13;;
7813;SDS011;3952;48.364;16.022;2023-09-12T11:53:19;8.23;;;7.18;;
7813;SDS011;3952;48.364;16.022;2023-09-12T11:55:51;8.43;;;7.88;;
7813;SDS011;3952;48.364;16.022;2023-09-12T11:58:20;7.68;;;7.22;;
7813;SDS011;3952;48.364;16.022;2023-09-12T12:00:48;7.68;;;7.13;;
7813;SDS011;3952;48.364;16.022;2023-09-12T12:03:17;7.50;;;7.10;;
7813;SDS011;3952;48.364;16.022;2023-09-12T12:05:46;7.00;;;6.47;;
7813;SDS011;3952;48.364;16.022;2023-09-12T12:08:15;10.07;;;6.63;;
7813;SDS011;3952;48.364;16.022;2023-09-12T12:10:43;7.53;;;6.13;;
7813;SDS011;3952;48.364;16.022;2023-09-12T12:13:16;6.40;;;5.97;;
7813;SDS011;3952;48.364;16.022;2023-09-12T12:15:44;7.45;;;7.05;;
7813;SDS011;3952;48.364;16.022;2023-09-12T12:18:11;7.32;;;6.88;;
7813;SDS011;3952;48.364;16.022;2023-09-12T12:20:38;6.43;;;6.03;;
7813;SDS011;3952;48.364;16.022;2023-09-12T12:23:06;6.95;;;6.53;;
7813;SDS011;3952;48.364;16.022;2023-09-12T12:25:35;6.28;;;5.93;;
7813;SDS011;3952;48.364;16.022;2023-09-12T12:28:03;6.65;;;6.10;;
7813;SDS011;3952;48.364;16.022;2023-09-12T12:30:31;7.32;;;6.57;;
7813;SDS011;3952;48.364;16.022;2023-09-12T12:33:00;7.00;;;6.40;;
7813;SDS011;3952;48.364;16.022;2023-09-12T12:35:28;6.68;;;6.03;;
7813;SDS011;3952;48.364;16.022;2023-09-12T12:37:55;6.10;;;5.72;;
7813;SDS011;3952;48.364;16.022;2023-09-12T12:40:22;14.30;;;7.20;;
7813;SDS011;3952;48.364;16.022;2023-09-12T12:42:51;6.88;;;6.38;;
7813;SDS011;3952;48.364;16.022;2023-09-12T12:45:19;6.40;;;5.65;;
7813;SDS011;3952;48.364;16.022;2023-09-12T12:47:50;6.50;;;5.90;;
7813;SDS011;3952;48.364;16.022;2023-09-12T12:50:26;5.93;;;5.45;;
7813;SDS011;3952;48.364;16.022;2023-09-12T12:52:53;6.22;;;5.82;;
7813;SDS011;3952;48.364;16.022;2023-09-12T12:55:20;5.82;;;5.40;;
7813;SDS011;3952;48.364;16.022;2023-09-12T12:57:53;5.95;;;5.57;;
7813;SDS011;3952;48.364;16.022;2023-09-12T13:00:20;5.80;;;5.50;;
7813;SDS011;3952;48.364;16.022;2023-09-12T13:02:48;6.57;;;6.18;;
7813;SDS011;3952;48.364;16.022;2023-09-12T13:05:19;5.88;;;5.57;;
7813;SDS011;3952;48.364;16.022;2023-09-12T13:07:47;6.72;;;6.18;;
7813;SDS011;3952;48.364;16.022;2023-09-12T13:10:16;7.00;;;6.43;;
7813;SDS011;3952;48.364;16.022;2023-09-12T13:12:43;7.60;;;6.95;;
7813;SDS011;3952;48.364;16.022;2023-09-12T13:15:12;6.93;;;6.53;;
7813;SDS011;3952;48.364;16.022;2023-09-12T13:17:40;7.50;;;7.03;;
7813;SDS011;3952;48.364;16.022;2023-09-12T13:20:07;7.13;;;6.53;;
7813;SDS011;3952;48.364;16.022;2023-09-12T13:22:35;7.35;;;6.75;;
7813;SDS011;3952;48.364;16.022;2023-09-12T13:25:03;7.15;;;6.75;;
7813;SDS011;3952;48.364;16.022;2023-09-12T13:27:32;7.30;;;6.80;;
7813;SDS011;3952;48.364;16.022;2023-09-12T13:29:59;7.38;;;6.88;;
7813;SDS011;3952;48.364;16.022;2023-09-12T13:32:30;6.88;;;6.47;;
7813;SDS011;3952;48.364;16.022;2023-09-12T13:34:58;7.75;;;7.20;;
7813;SDS011;3952;48.364;16.022;2023-09-12T13:37:25;8.10;;;7.35;;
7813;SDS011;3952;48.364;16.022;2023-09-12T13:39:52;8.88;;;8.25;;
7813;SDS011;3952;48.364;16.022;2023-09-12T13:42:20;8.90;;;8.25;;
7813;SDS011;3952;48.364;16.022;2023-09-12T13:44:48;8.15;;;7.55;;
7813;SDS011;3952;48.364;16.022;2023-09-12T13:47:15;8.43;;;7.93;;
7813;SDS011;3952;48.364;16.022;2023-09-12T13:49:48;9.05;;;8.32;;
7813;SDS011;3952;48.364;16.022;2023-09-12T13:52:17;8.70;;;8.00;;
7813;SDS011;3952;48.364;16.022;2023-09-12T13:54:44;8.57;;;7.95;;
7813;SDS011;3952;48.364;16.022;2023-09-12T13:57:11;8.85;;;8.30;;
7813;SDS011;3952;48.364;16.022;2023-09-12T13:59:38;9.13;;;8.52;;
7813;SDS011;3952;48.364;16.022;2023-09-12T14:02:05;8.93;;;8.25;;
7813;SDS011;3952;48.364;16.022;2023-09-12T14:04:33;10.38;;;9.57;;
7813;SDS011;3952;48.364;16.022;2023-09-12T14:07:02;10.73;;;9.93;;
7813;SDS011;3952;48.364;16.022;2023-09-12T14:09:29;10.77;;;9.63;;
7813;SDS011;3952;48.364;16.022;2023-09-12T14:11:56;10.55;;;9.68;;
7813;SDS011;3952;48.364;16.022;2023-09-12T14:14:23;10.55;;;9.85;;
7813;SDS011;3952;48.364;16.022;2023-09-12T14:16:50;10.88;;;9.80;;
7813;SDS011;3952;48.364;16.022;2023-09-12T14:19:18;10.85;;;9.98;;
7813;SDS011;3952;48.364;16.022;2023-09-12T14:21:46;9.88;;;9.18;;
7813;SDS011;3952;48.364;16.022;2023-09-12T14:24:14;9.32;;;8.82;;
7813;SDS011;3952;48.364;16.022;2023-09-12T14:26:41;9.60;;;9.00;;
7813;SDS011;3952;48.364;16.022;2023-09-12T14:29:08;10.23;;;9.20;;
7813;SDS011;3952;48.364;16.022;2023-09-12T14:31:36;12.48;;;9.20;;
7813;SDS011;3952;48.364;16.022;2023-09-12T14:34:03;9.85;;;8.95;;
7813;SDS011;3952;48.364;16.022;2023-09-12T14:36:33;9.60;;;8.98;;
7813;SDS011;3952;48.364;16.022;2023-09-12T14:39:00;10.50;;;9.73;;
7813;SDS011;3952;48.364;16.022;2023-09-12T14:41:29;10.75;;;9.95;;
7813;SDS011;3952;48.364;16.022;2023-09-12T14:43:56;9.75;;;9.15;;
7813;SDS011;3952;48.364;16.022;2023-09-12T14:46:23;10.27;;;9.15;;
7813;SDS011;3952;48.364;16.022;2023-09-12T14:48:50;9.30;;;8.60;;
7813;SDS011;3952;48.364;16.022;2023-09-12T14:51:17;9.35;;;8.75;;
7813;SDS011;3952;48.364;16.022;2023-09-12T14:53:44;10.18;;;8.93;;
7813;SDS011;3952;48.364;16.022;2023-09-12T14:56:12;9.25;;;8.48;;
7813;SDS011;3952;48.364;16.022;2023-09-12T14:58:40;11.07;;;8.75;;
7813;SDS011;3952;48.364;16.022;2023-09-12T15:01:07;8.57;;;8.05;;
7813;SDS011;3952;48.364;16.022;2023-09-12T15:03:35;8.30;;;7.70;;
7813;SDS011;3952;48.364;16.022;2023-09-12T15:06:04;9.15;;;7.90;;